Belle Chasse — WDG2912 — position and weather

sailwx.info

Track history (hours):
 
Tides and Currents Weather Stations Pressure Air Temp Water Temp Dewpoint Dewpoint Depression Visibility Wind Speed Wind Dir Waves Ship Positions

Belle Chasse

Owner: Higman Barge Lines, Inc, Orange, TX. More information available from US FCC via Universal Licensing System and Coast Guard Vessel Documentation Center.

Last reported at 2014-Nov-24 19:28 UTC. Time now 2014-Nov-24 20:25 UTC.
Position N 29°24' W 094°46'.

Length 26 m; draft 3 m.

Type: Towing. MMSI: 367520550.

Date/timePositionNaut miles runAvg speedWind from/ knotsBaromVisibWave heightAir tempDewpointWater temp
2014-Nov-24 19:28N 29°24' W 094°46'3 0.6
2014-Nov-24 14:16N 29°22' W 094°48'6 0.3
2014-Nov-23 21:30N 29°22' W 094°55'5 0.8
2014-Nov-23 15:29N 29°17' W 094°57'12 2.1
2014-Nov-23 09:33N 29°28' W 094°51'6 6.1
2014-Nov-23 08:33N 29°33' W 094°55'6 5.5
2014-Nov-23 07:32N 29°38' W 094°58'5 5.4
2014-Nov-23 06:33N 29°42' W 095°01'5 4.8
2014-Nov-23 05:32N 29°46' W 095°05'6 0.2
2014-Nov-21 21:12N 29°44' W 095°12'3 5.4
2014-Nov-21 20:33N 29°44' W 095°08'3 2.9
2014-Nov-21 19:26N 29°47' W 095°06'0 0.2
2014-Nov-21 18:26N 29°47' W 095°06'2 2.5
2014-Nov-21 17:32N 29°45' W 095°07'0 0.0
2014-Nov-21 16:32N 29°45' W 095°07'0 0.0
2014-Nov-21 15:32N 29°45' W 095°07'0 0.0
2014-Nov-21 14:32N 29°45' W 095°07'0 0.0
2014-Nov-21 13:29N 29°45' W 095°07'0 0.0
2014-Nov-21 11:29N 29°45' W 095°07'2 0.7
2014-Nov-21 09:23N 29°44' W 095°08'2 1.3
2014-Nov-21 08:13N 29°45' W 095°07'0 0.0
2014-Nov-21 07:34N 29°45' W 095°07'0 0.0
2014-Nov-21 04:34N 29°45' W 095°07'0 0.0
2014-Nov-21 03:30N 29°45' W 095°07'0 0.0
2014-Nov-21 02:31N 29°45' W 095°07'0 0.0
2014-Nov-21 00:07N 29°45' W 095°07'2 2.4
2014-Nov-20 23:29N 29°46' W 095°06'1 0.9
2014-Nov-20 22:32N 29°47' W 095°06'0 0.0
2014-Nov-20 21:32N 29°47' W 095°06'0 0.0
2014-Nov-20 20:32N 29°47' W 095°06'0 0.0
2014-Nov-20 19:32N 29°47' W 095°06'0 0.0
2014-Nov-20 18:32N 29°47' W 095°06'0 0.0
2014-Nov-20 17:32N 29°47' W 095°06'0 0.0
2014-Nov-20 16:32N 29°47' W 095°06'0 0.0
2014-Nov-20 15:34N 29°47' W 095°06'1 1.4
2014-Nov-20 14:33N 29°45' W 095°06'0 0.2
2014-Nov-20 13:32N 29°46' W 095°06'1 1.0
2014-Nov-20 12:11N 29°47' W 095°06'0 0.0
2014-Nov-20 11:32N 29°47' W 095°06'0 0.0
2014-Nov-20 10:32N 29°47' W 095°06'0 0.0
2014-Nov-20 09:20N 29°47' W 095°06'0 0.0
2014-Nov-20 08:17N 29°47' W 095°06'0 0.0
2014-Nov-20 07:29N 29°47' W 095°06'0 0.0
2014-Nov-20 06:17N 29°47' W 095°06'0 0.0
2014-Nov-20 05:32N 29°47' W 095°06'0 0.0
2014-Nov-20 04:29N 29°47' W 095°06'0 0.0
2014-Nov-20 03:29N 29°47' W 095°06'0 0.0
2014-Nov-20 02:20N 29°47' W 095°06'0 0.0
2014-Nov-20 01:11N 29°47' W 095°06'0 0.0
2014-Nov-20 00:11N 29°47' W 095°06'0 0.0
2014-Nov-19 23:23N 29°47' W 095°06'0 0.0
2014-Nov-19 22:23N 29°47' W 095°06'0 0.0
2014-Nov-19 21:32N 29°47' W 095°06'0 0.4
2014-Nov-19 20:33N 29°46' W 095°06'0 0.3
2014-Nov-19 19:32N 29°46' W 095°06'0 0.0
2014-Nov-19 18:32N 29°46' W 095°06'0 0.0
2014-Nov-19 17:29N 29°46' W 095°06'0 0.0
2014-Nov-19 16:26N 29°46' W 095°06'0 0.0
2014-Nov-19 15:32N 29°46' W 095°06'0 0.0
2014-Nov-19 14:32N 29°46' W 095°06'0 0.0
2014-Nov-19 13:32N 29°46' W 095°06'0 0.0
2014-Nov-18 23:20N 29°46' W 095°06'0 0.0
2014-Nov-18 22:32N 29°46' W 095°06'0 0.1
2014-Nov-18 21:23N 29°46' W 095°06'2 1.8
2014-Nov-18 20:32N 29°47' W 095°05'0 0.1
2014-Nov-18 19:28N 29°47' W 095°05'0 0.0
2014-Nov-18 18:31N 29°47' W 095°05'0 0.0
2014-Nov-18 17:31N 29°47' W 095°05'0 0.0
2014-Nov-18 16:25N 29°47' W 095°05'0 0.0
2014-Nov-18 15:31N 29°47' W 095°05'0 0.0
2014-Nov-18 14:28N 29°47' W 095°05'0 0.0
2014-Nov-18 13:31N 29°47' W 095°05'0 0.0
2014-Nov-18 12:28N 29°47' W 095°05'0 0.0
2014-Nov-18 11:22N 29°47' W 095°05'0 0.0
2014-Nov-18 09:31N 29°47' W 095°05'0 0.0
2014-Nov-18 08:10N 29°47' W 095°05'0 0.0
2014-Nov-18 06:13N 29°47' W 095°05'0 0.0
2014-Nov-18 05:28N 29°47' W 095°05'0 0.0
2014-Nov-18 03:31N 29°47' W 095°05'0 0.0
2014-Nov-18 02:31N 29°47' W 095°05'0 0.0
2014-Nov-18 01:31N 29°47' W 095°05'0 0.0
2014-Nov-17 23:31N 29°47' W 095°05'0 0.0
2014-Nov-17 22:28N 29°47' W 095°05'0 0.0
2014-Nov-17 21:31N 29°47' W 095°05'0 0.0
2014-Nov-17 20:31N 29°47' W 095°05'0 0.0
2014-Nov-17 19:31N 29°47' W 095°05'0 0.0
2014-Nov-17 18:31N 29°47' W 095°05'0 0.0
2014-Nov-17 17:31N 29°47' W 095°05'0 0.0
2014-Nov-17 16:31N 29°47' W 095°05'0 0.0
2014-Nov-17 15:31N 29°47' W 095°05'0 0.0
2014-Nov-17 14:31N 29°47' W 095°05'0 0.0
2014-Nov-17 13:31N 29°47' W 095°05'0 0.0
2014-Nov-17 12:31N 29°47' W 095°05'3 2.8
2014-Nov-17 11:31N 29°45' W 095°07'2 2.5
2014-Nov-17 10:33N 29°46' W 095°05'0 0.4
2014-Nov-17 09:32N 29°47' W 095°05'0 0.0
2014-Nov-17 08:29N 29°47' W 095°05'0 0.0
2014-Nov-17 07:29N 29°47' W 095°05'0 0.0
2014-Nov-17 06:32N 29°47' W 095°05'0 0.0
2014-Nov-17 05:32N 29°47' W 095°05'0 0.0
2014-Nov-17 04:26N 29°47' W 095°05'0 0.0
2014-Nov-17 03:32N 29°47' W 095°05'0 0.0
2014-Nov-17 02:32N 29°47' W 095°05'0 0.0
2014-Nov-17 01:32N 29°47' W 095°05'0 0.0
2014-Nov-16 22:31N 29°47' W 095°05'0 0.0
2014-Nov-16 21:28N 29°47' W 095°05'0 0.0
2014-Nov-16 20:28N 29°47' W 095°05'0 0.0
2014-Nov-16 19:31N 29°47' W 095°05'0 0.0
2014-Nov-16 18:31N 29°47' W 095°05'0 0.0
2014-Nov-16 17:31N 29°47' W 095°05'0 0.0
2014-Nov-16 16:31N 29°47' W 095°05'0 0.0
2014-Nov-16 15:31N 29°47' W 095°05'0 0.0
2014-Nov-16 14:31N 29°47' W 095°05'0 0.0
2014-Nov-16 13:31N 29°47' W 095°05'8 0.3
2014-Nov-15 10:32N 29°44' W 095°13'4 3.6
2014-Nov-15 09:33N 29°44' W 095°09'4 0.5
2014-Nov-15 01:33N 29°46' W 095°05'4 3.9
2014-Nov-15 00:32N 29°44' W 095°01'0 0.3
2014-Nov-14 23:33N 29°44' W 095°01'4 3.5
2014-Nov-14 22:28N 29°46' W 095°05'0 0.0
2014-Nov-14 21:31N 29°46' W 095°05'0 0.0
2014-Nov-14 20:28N 29°46' W 095°05'  
Track history (hours):
 
Tides and Currents Weather Stations Pressure Air Temp Water Temp Dewpoint Dewpoint Depression Visibility Wind Speed Wind Dir Waves Ship Positions

Belle Chasse

Owner: Higman Barge Lines, Inc, Orange, TX. More information available from US FCC via Universal Licensing System and Coast Guard Vessel Documentation Center.

Last reported at 2014-Nov-24 19:28 UTC. Time now 2014-Nov-24 20:25 UTC.
Position N 29°24' W 094°46'.

Length 26 m; draft 3 m.

Type: Towing. MMSI: 367520550.

Date/timePositionNaut miles runAvg speedWind from/ knotsBaromVisibWave heightAir tempDewpointWater temp
2014-Nov-24 19:28N 29°24' W 094°46'3 0.6
2014-Nov-24 14:16N 29°22' W 094°48'6 0.3
2014-Nov-23 21:30N 29°22' W 094°55'5 0.8
2014-Nov-23 15:29N 29°17' W 094°57'12 2.1
2014-Nov-23 09:33N 29°28' W 094°51'6 6.1
2014-Nov-23 08:33N 29°33' W 094°55'6 5.5
2014-Nov-23 07:32N 29°38' W 094°58'5 5.4
2014-Nov-23 06:33N 29°42' W 095°01'5 4.8
2014-Nov-23 05:32N 29°46' W 095°05'6 0.2
2014-Nov-21 21:12N 29°44' W 095°12'3 5.4
2014-Nov-21 20:33N 29°44' W 095°08'3 2.9
2014-Nov-21 19:26N 29°47' W 095°06'0 0.2
2014-Nov-21 18:26N 29°47' W 095°06'2 2.5
2014-Nov-21 17:32N 29°45' W 095°07'0 0.0
2014-Nov-21 16:32N 29°45' W 095°07'0 0.0
2014-Nov-21 15:32N 29°45' W 095°07'0 0.0
2014-Nov-21 14:32N 29°45' W 095°07'0 0.0
2014-Nov-21 13:29N 29°45' W 095°07'0 0.0
2014-Nov-21 11:29N 29°45' W 095°07'2 0.7
2014-Nov-21 09:23N 29°44' W 095°08'2 1.3
2014-Nov-21 08:13N 29°45' W 095°07'0 0.0
2014-Nov-21 07:34N 29°45' W 095°07'0 0.0
2014-Nov-21 04:34N 29°45' W 095°07'0 0.0
2014-Nov-21 03:30N 29°45' W 095°07'0 0.0
2014-Nov-21 02:31N 29°45' W 095°07'0 0.0
2014-Nov-21 00:07N 29°45' W 095°07'2 2.4
2014-Nov-20 23:29N 29°46' W 095°06'1 0.9
2014-Nov-20 22:32N 29°47' W 095°06'0 0.0
2014-Nov-20 21:32N 29°47' W 095°06'0 0.0
2014-Nov-20 20:32N 29°47' W 095°06'0 0.0
2014-Nov-20 19:32N 29°47' W 095°06'0 0.0
2014-Nov-20 18:32N 29°47' W 095°06'0 0.0
2014-Nov-20 17:32N 29°47' W 095°06'0 0.0
2014-Nov-20 16:32N 29°47' W 095°06'0 0.0
2014-Nov-20 15:34N 29°47' W 095°06'1 1.4
2014-Nov-20 14:33N 29°45' W 095°06'0 0.2
2014-Nov-20 13:32N 29°46' W 095°06'1 1.0
2014-Nov-20 12:11N 29°47' W 095°06'0 0.0
2014-Nov-20 11:32N 29°47' W 095°06'0 0.0
2014-Nov-20 10:32N 29°47' W 095°06'0 0.0
2014-Nov-20 09:20N 29°47' W 095°06'0 0.0
2014-Nov-20 08:17N 29°47' W 095°06'0 0.0
2014-Nov-20 07:29N 29°47' W 095°06'0 0.0
2014-Nov-20 06:17N 29°47' W 095°06'0 0.0
2014-Nov-20 05:32N 29°47' W 095°06'0 0.0
2014-Nov-20 04:29N 29°47' W 095°06'0 0.0
2014-Nov-20 03:29N 29°47' W 095°06'0 0.0
2014-Nov-20 02:20N 29°47' W 095°06'0 0.0
2014-Nov-20 01:11N 29°47' W 095°06'0 0.0
2014-Nov-20 00:11N 29°47' W 095°06'0 0.0
2014-Nov-19 23:23N 29°47' W 095°06'0 0.0
2014-Nov-19 22:23N 29°47' W 095°06'0 0.0
2014-Nov-19 21:32N 29°47' W 095°06'0 0.4
2014-Nov-19 20:33N 29°46' W 095°06'0 0.3
2014-Nov-19 19:32N 29°46' W 095°06'0 0.0
2014-Nov-19 18:32N 29°46' W 095°06'0 0.0
2014-Nov-19 17:29N 29°46' W 095°06'0 0.0
2014-Nov-19 16:26N 29°46' W 095°06'0 0.0
2014-Nov-19 15:32N 29°46' W 095°06'0 0.0
2014-Nov-19 14:32N 29°46' W 095°06'0 0.0
2014-Nov-19 13:32N 29°46' W 095°06'0 0.0
2014-Nov-18 23:20N 29°46' W 095°06'0 0.0
2014-Nov-18 22:32N 29°46' W 095°06'0 0.1
2014-Nov-18 21:23N 29°46' W 095°06'2 1.8
2014-Nov-18 20:32N 29°47' W 095°05'0 0.1
2014-Nov-18 19:28N 29°47' W 095°05'0 0.0
2014-Nov-18 18:31N 29°47' W 095°05'0 0.0
2014-Nov-18 17:31N 29°47' W 095°05'0 0.0
2014-Nov-18 16:25N 29°47' W 095°05'0 0.0
2014-Nov-18 15:31N 29°47' W 095°05'0 0.0
2014-Nov-18 14:28N 29°47' W 095°05'0 0.0
2014-Nov-18 13:31N 29°47' W 095°05'0 0.0
2014-Nov-18 12:28N 29°47' W 095°05'0 0.0
2014-Nov-18 11:22N 29°47' W 095°05'0 0.0
2014-Nov-18 09:31N 29°47' W 095°05'0 0.0
2014-Nov-18 08:10N 29°47' W 095°05'0 0.0
2014-Nov-18 06:13N 29°47' W 095°05'0 0.0
2014-Nov-18 05:28N 29°47' W 095°05'0 0.0
2014-Nov-18 03:31N 29°47' W 095°05'0 0.0
2014-Nov-18 02:31N 29°47' W 095°05'0 0.0
2014-Nov-18 01:31N 29°47' W 095°05'0 0.0
2014-Nov-17 23:31N 29°47' W 095°05'0 0.0
2014-Nov-17 22:28N 29°47' W 095°05'0 0.0
2014-Nov-17 21:31N 29°47' W 095°05'0 0.0
2014-Nov-17 20:31N 29°47' W 095°05'0 0.0
2014-Nov-17 19:31N 29°47' W 095°05'0 0.0
2014-Nov-17 18:31N 29°47' W 095°05'0 0.0
2014-Nov-17 17:31N 29°47' W 095°05'0 0.0
2014-Nov-17 16:31N 29°47' W 095°05'0 0.0
2014-Nov-17 15:31N 29°47' W 095°05'0 0.0
2014-Nov-17 14:31N 29°47' W 095°05'0 0.0
2014-Nov-17 13:31N 29°47' W 095°05'0 0.0
2014-Nov-17 12:31N 29°47' W 095°05'3 2.8
2014-Nov-17 11:31N 29°45' W 095°07'2 2.5
2014-Nov-17 10:33N 29°46' W 095°05'0 0.4
2014-Nov-17 09:32N 29°47' W 095°05'0 0.0
2014-Nov-17 08:29N 29°47' W 095°05'0 0.0
2014-Nov-17 07:29N 29°47' W 095°05'0 0.0
2014-Nov-17 06:32N 29°47' W 095°05'0 0.0
2014-Nov-17 05:32N 29°47' W 095°05'0 0.0
2014-Nov-17 04:26N 29°47' W 095°05'0 0.0
2014-Nov-17 03:32N 29°47' W 095°05'0 0.0
2014-Nov-17 02:32N 29°47' W 095°05'0 0.0
2014-Nov-17 01:32N 29°47' W 095°05'0 0.0
2014-Nov-16 22:31N 29°47' W 095°05'0 0.0
2014-Nov-16 21:28N 29°47' W 095°05'0 0.0
2014-Nov-16 20:28N 29°47' W 095°05'0 0.0
2014-Nov-16 19:31N 29°47' W 095°05'0 0.0
2014-Nov-16 18:31N 29°47' W 095°05'0 0.0
2014-Nov-16 17:31N 29°47' W 095°05'0 0.0
2014-Nov-16 16:31N 29°47' W 095°05'0 0.0
2014-Nov-16 15:31N 29°47' W 095°05'0 0.0
2014-Nov-16 14:31N 29°47' W 095°05'0 0.0
2014-Nov-16 13:31N 29°47' W 095°05'8 0.3
2014-Nov-15 10:32N 29°44' W 095°13'4 3.6
2014-Nov-15 09:33N 29°44' W 095°09'4 0.5
2014-Nov-15 01:33N 29°46' W 095°05'4 3.9
2014-Nov-15 00:32N 29°44' W 095°01'0 0.3
2014-Nov-14 23:33N 29°44' W 095°01'4 3.5
2014-Nov-14 22:28N 29°46' W 095°05'0 0.0
2014-Nov-14 21:31N 29°46' W 095°05'0 0.0
2014-Nov-14 20:28N 29°46' W 095°05'  

Dump ship's entire track history